sensor_id;sensor_type;location;lat;lon;timestamp;pressure;altitude;pressure_sealevel;temperature;humidity
11682;BME280;5897;42.640;23.310;2023-03-18T00:00:48;94275.16;;;1.91;87.68
11682;BME280;5897;42.640;23.310;2023-03-18T00:03:17;94260.72;;;1.96;87.65
11682;BME280;5897;42.640;23.310;2023-03-18T00:05:44;94274.72;;;1.89;87.66
11682;BME280;5897;42.640;23.310;2023-03-18T00:08:10;94265.31;;;1.99;87.37
11682;BME280;5897;42.640;23.310;2023-03-18T00:10:37;94272.88;;;1.93;87.20
11682;BME280;5897;42.640;23.310;2023-03-18T00:13:05;94270.22;;;1.93;87.13
11682;BME280;5897;42.640;23.310;2023-03-18T00:15:31;94269.06;;;1.94;87.12
11682;BME280;5897;42.640;23.310;2023-03-18T00:17:58;94266.72;;;1.89;86.96
11682;BME280;5897;42.640;23.310;2023-03-18T00:20:27;94256.06;;;1.89;87.54
11682;BME280;5897;42.640;23.310;2023-03-18T00:23:05;94254.25;;;1.97;87.53
11682;BME280;5897;42.640;23.310;2023-03-18T00:25:32;94255.16;;;2.08;87.19
11682;BME280;5897;42.640;23.310;2023-03-18T00:27:59;94255.59;;;2.13;86.21
11682;BME280;5897;42.640;23.310;2023-03-18T00:30:26;94256.38;;;2.17;85.66
11682;BME280;5897;42.640;23.310;2023-03-18T00:32:54;94252.47;;;2.08;85.49
11682;BME280;5897;42.640;23.310;2023-03-18T00:35:23;94249.09;;;2.11;85.36
11682;BME280;5897;42.640;23.310;2023-03-18T00:37:53;94239.13;;;2.04;85.57
11682;BME280;5897;42.640;23.310;2023-03-18T00:40:20;94243.97;;;1.95;85.27
11682;BME280;5897;42.640;23.310;2023-03-18T00:42:54;94241.53;;;1.83;85.94
11682;BME280;5897;42.640;23.310;2023-03-18T00:45:35;94231.72;;;1.87;86.84
11682;BME280;5897;42.640;23.310;2023-03-18T00:48:03;94233.09;;;1.74;86.90
11682;BME280;5897;42.640;23.310;2023-03-18T00:50:30;94226.13;;;1.66;87.49
11682;BME280;5897;42.640;23.310;2023-03-18T00:52:58;94226.50;;;1.65;87.64
11682;BME280;5897;42.640;23.310;2023-03-18T00:55:25;94223.94;;;1.72;87.82
11682;BME280;5897;42.640;23.310;2023-03-18T00:57:53;94223.03;;;1.61;88.09
11682;BME280;5897;42.640;23.310;2023-03-18T01:00:20;94216.94;;;1.60;88.50
11682;BME280;5897;42.640;23.310;2023-03-18T01:02:47;94208.09;;;1.53;89.34
11682;BME280;5897;42.640;23.310;2023-03-18T01:05:14;94206.25;;;1.57;88.95
11682;BME280;5897;42.640;23.310;2023-03-18T01:07:41;94210.63;;;1.42;89.83
11682;BME280;5897;42.640;23.310;2023-03-18T01:10:11;94210.63;;;1.42;90.23
11682;BME280;5897;42.640;23.310;2023-03-18T01:12:38;94210.81;;;1.56;89.86
11682;BME280;5897;42.640;23.310;2023-03-18T01:15:07;94212.34;;;1.57;89.61
11682;BME280;5897;42.640;23.310;2023-03-18T01:17:35;94198.59;;;1.55;89.58
11682;BME280;5897;42.640;23.310;2023-03-18T01:20:03;94200.19;;;1.60;89.75
11682;BME280;5897;42.640;23.310;2023-03-18T01:22:30;94197.56;;;1.63;90.24
11682;BME280;5897;42.640;23.310;2023-03-18T01:24:57;94200.28;;;1.67;89.37
11682;BME280;5897;42.640;23.310;2023-03-18T01:27:25;94198.44;;;1.71;88.99
11682;BME280;5897;42.640;23.310;2023-03-18T01:29:52;94195.81;;;1.74;88.49
11682;BME280;5897;42.640;23.310;2023-03-18T01:32:19;94200.25;;;1.63;88.32
11682;BME280;5897;42.640;23.310;2023-03-18T01:34:46;94191.94;;;1.68;87.92
11682;BME280;5897;42.640;23.310;2023-03-18T01:37:14;94191.03;;;1.57;88.10
11682;BME280;5897;42.640;23.310;2023-03-18T01:39:40;94193.03;;;1.34;89.40
11682;BME280;5897;42.640;23.310;2023-03-18T01:42:07;94197.63;;;1.37;89.93
11682;BME280;5897;42.640;23.310;2023-03-18T01:44:35;94196.19;;;1.43;89.76
11682;BME280;5897;42.640;23.310;2023-03-18T01:47:02;94180.28;;;1.17;90.73
11682;BME280;5897;42.640;23.310;2023-03-18T01:49:33;94192.13;;;1.23;90.43
11682;BME280;5897;42.640;23.310;2023-03-18T01:52:04;94187.56;;;1.24;90.55
11682;BME280;5897;42.640;23.310;2023-03-18T01:54:36;94193.28;;;1.22;91.01
11682;BME280;5897;42.640;23.310;2023-03-18T01:57:04;94193.19;;;1.19;90.89
11682;BME280;5897;42.640;23.310;2023-03-18T01:59:35;94190.66;;;1.26;90.57
11682;BME280;5897;42.640;23.310;2023-03-18T02:02:07;94182.28;;;1.27;90.44
11682;BME280;5897;42.640;23.310;2023-03-18T02:04:39;94185.81;;;1.35;89.79
11682;BME280;5897;42.640;23.310;2023-03-18T02:07:12;94181.66;;;1.37;88.72
11682;BME280;5897;42.640;23.310;2023-03-18T02:09:39;94178.97;;;1.34;88.91
11682;BME280;5897;42.640;23.310;2023-03-18T02:12:07;94180.53;;;1.38;89.22
11682;BME280;5897;42.640;23.310;2023-03-18T02:14:34;94177.56;;;1.43;88.92
11682;BME280;5897;42.640;23.310;2023-03-18T02:17:06;94185.53;;;1.43;88.77
11682;BME280;5897;42.640;23.310;2023-03-18T02:19:56;94180.25;;;1.47;88.62
11682;BME280;5897;42.640;23.310;2023-03-18T02:22:27;94169.28;;;1.52;88.39
11682;BME280;5897;42.640;23.310;2023-03-18T02:25:03;94163.78;;;1.34;88.45
11682;BME280;5897;42.640;23.310;2023-03-18T02:27:35;94172.53;;;1.38;88.45
11682;BME280;5897;42.640;23.310;2023-03-18T02:30:06;94179.00;;;1.37;88.66
11682;BME280;5897;42.640;23.310;2023-03-18T02:32:34;94176.22;;;1.27;88.39
11682;BME280;5897;42.640;23.310;2023-03-18T02:35:04;94178.97;;;1.34;88.58
11682;BME280;5897;42.640;23.310;2023-03-18T02:37:33;94172.84;;;1.33;88.67
11682;BME280;5897;42.640;23.310;2023-03-18T02:40:11;94174.31;;;1.27;88.28
11682;BME280;5897;42.640;23.310;2023-03-18T02:42:40;94179.47;;;1.13;88.15
11682;BME280;5897;42.640;23.310;2023-03-18T02:45:11;94179.09;;;1.15;89.10
11682;BME280;5897;42.640;23.310;2023-03-18T02:47:39;94176.44;;;1.15;89.40
11682;BME280;5897;42.640;23.310;2023-03-18T02:50:09;94172.69;;;1.19;89.75
11682;BME280;5897;42.640;23.310;2023-03-18T02:52:36;94162.75;;;1.16;89.49
11682;BME280;5897;42.640;23.310;2023-03-18T02:55:03;94178.88;;;1.27;89.23
11682;BME280;5897;42.640;23.310;2023-03-18T02:57:31;94167.97;;;1.35;89.22
11682;BME280;5897;42.640;23.310;2023-03-18T02:59:59;94168.78;;;1.39;88.78
11682;BME280;5897;42.640;23.310;2023-03-18T03:02:26;94169.56;;;1.43;89.39
11682;BME280;5897;42.640;23.310;2023-03-18T03:04:53;94167.69;;;1.44;88.78
11682;BME280;5897;42.640;23.310;2023-03-18T03:07:19;94168.34;;;1.37;89.60
11682;BME280;5897;42.640;23.310;2023-03-18T03:09:46;94167.91;;;1.32;88.89
11682;BME280;5897;42.640;23.310;2023-03-18T03:12:14;94177.66;;;1.21;89.15
11682;BME280;5897;42.640;23.310;2023-03-18T03:14:41;94173.09;;;1.21;89.84
11682;BME280;5897;42.640;23.310;2023-03-18T03:17:09;94172.78;;;1.26;90.47
11682;BME280;5897;42.640;23.310;2023-03-18T03:19:36;94175.88;;;1.28;90.68
11682;BME280;5897;42.640;23.310;2023-03-18T03:22:03;94168.50;;;1.18;90.05
11682;BME280;5897;42.640;23.310;2023-03-18T03:24:30;94176.97;;;1.27;90.21
11682;BME280;5897;42.640;23.310;2023-03-18T03:26:56;94181.97;;;1.32;90.01
11682;BME280;5897;42.640;23.310;2023-03-18T03:29:23;94180.38;;;1.24;89.82
11682;BME280;5897;42.640;23.310;2023-03-18T03:31:50;94189.09;;;1.25;90.21
11682;BME280;5897;42.640;23.310;2023-03-18T03:34:18;94192.53;;;1.25;90.12
11682;BME280;5897;42.640;23.310;2023-03-18T03:36:45;94187.53;;;1.20;90.19
11682;BME280;5897;42.640;23.310;2023-03-18T03:39:11;94192.38;;;1.11;90.48
11682;BME280;5897;42.640;23.310;2023-03-18T03:41:39;94177.31;;;0.96;91.88
11682;BME280;5897;42.640;23.310;2023-03-18T03:44:06;94185.88;;;1.09;91.76
11682;BME280;5897;42.640;23.310;2023-03-18T03:46:32;94194.19;;;1.07;92.82
11682;BME280;5897;42.640;23.310;2023-03-18T03:48:59;94194.59;;;1.09;92.47
11682;BME280;5897;42.640;23.310;2023-03-18T03:51:28;94183.34;;;0.93;92.11
11682;BME280;5897;42.640;23.310;2023-03-18T03:53:54;94182.66;;;0.96;92.58
11682;BME280;5897;42.640;23.310;2023-03-18T03:56:21;94187.22;;;0.99;92.76
11682;BME280;5897;42.640;23.310;2023-03-18T03:58:48;94187.66;;;1.01;92.74
11682;BME280;5897;42.640;23.310;2023-03-18T04:01:15;94184.56;;;0.99;92.78
11682;BME280;5897;42.640;23.310;2023-03-18T04:03:42;94181.25;;;1.06;92.48
11682;BME280;5897;42.640;23.310;2023-03-18T04:06:08;94179.25;;;0.99;92.45
11682;BME280;5897;42.640;23.310;2023-03-18T04:08:36;94192.50;;;0.96;92.44
11682;BME280;5897;42.640;23.310;2023-03-18T04:11:03;94189.59;;;1.04;92.60
11682;BME280;5897;42.640;23.310;2023-03-18T04:13:30;94191.06;;;1.02;92.60
11682;BME280;5897;42.640;23.310;2023-03-18T04:15:57;94204.38;;;1.02;92.49
11682;BME280;5897;42.640;23.310;2023-03-18T04:18:24;94209.34;;;1.03;92.31
11682;BME280;5897;42.640;23.310;2023-03-18T04:20:51;94211.16;;;0.99;91.96
11682;BME280;5897;42.640;23.310;2023-03-18T04:23:18;94208.41;;;0.92;92.26
11682;BME280;5897;42.640;23.310;2023-03-18T04:25:46;94218.13;;;0.81;93.32
11682;BME280;5897;42.640;23.310;2023-03-18T04:28:13;94222.34;;;0.82;94.32
11682;BME280;5897;42.640;23.310;2023-03-18T04:30:40;94216.31;;;0.85;94.77
11682;BME280;5897;42.640;23.310;2023-03-18T04:33:07;94221.28;;;0.87;95.63
11682;BME280;5897;42.640;23.310;2023-03-18T04:35:34;94231.97;;;0.90;95.95
11682;BME280;5897;42.640;23.310;2023-03-18T04:38:02;94240.13;;;1.04;95.45
11682;BME280;5897;42.640;23.310;2023-03-18T04:40:29;94231.59;;;1.18;94.70
11682;BME280;5897;42.640;23.310;2023-03-18T04:42:57;94232.38;;;1.18;94.08
11682;BME280;5897;42.640;23.310;2023-03-18T04:45:24;94232.38;;;1.18;92.48
11682;BME280;5897;42.640;23.310;2023-03-18T04:47:50;94242.78;;;1.04;91.08
11682;BME280;5897;42.640;23.310;2023-03-18T04:50:18;94235.44;;;0.94;91.64
11682;BME280;5897;42.640;23.310;2023-03-18T04:52:45;94236.66;;;1.00;92.15
11682;BME280;5897;42.640;23.310;2023-03-18T04:55:13;94239.78;;;1.06;93.02
11682;BME280;5897;42.640;23.310;2023-03-18T04:57:40;94241.34;;;1.10;92.85
11682;BME280;5897;42.640;23.310;2023-03-18T05:00:11;94234.59;;;1.16;92.48
11682;BME280;5897;42.640;23.310;2023-03-18T05:02:41;94244.56;;;1.23;92.62
11682;BME280;5897;42.640;23.310;2023-03-18T05:05:09;94236.69;;;1.30;93.03
11682;BME280;5897;42.640;23.310;2023-03-18T05:07:36;94239.09;;;1.38;93.07
11682;BME280;5897;42.640;23.310;2023-03-18T05:10:04;94244.19;;;1.50;92.80
11682;BME280;5897;42.640;23.310;2023-03-18T05:12:34;94240.81;;;1.53;92.08
11682;BME280;5897;42.640;23.310;2023-03-18T05:15:01;94244.97;;;1.51;92.38
11682;BME280;5897;42.640;23.310;2023-03-18T05:17:29;94239.00;;;1.61;92.25
11682;BME280;5897;42.640;23.310;2023-03-18T05:19:56;94245.75;;;1.51;93.33
11682;BME280;5897;42.640;23.310;2023-03-18T05:22:23;94234.44;;;1.61;93.63
11682;BME280;5897;42.640;23.310;2023-03-18T05:24:50;94230.38;;;1.71;93.76
11682;BME280;5897;42.640;23.310;2023-03-18T05:27:18;94227.78;;;1.78;94.42
11682;BME280;5897;42.640;23.310;2023-03-18T05:29:45;94225.56;;;1.83;94.26
11682;BME280;5897;42.640;23.310;2023-03-18T05:32:13;94230.28;;;1.97;94.18
11682;BME280;5897;42.640;23.310;2023-03-18T05:34:42;94224.31;;;2.07;93.67
11682;BME280;5897;42.640;23.310;2023-03-18T05:37:11;94227.50;;;2.19;93.38
11682;BME280;5897;42.640;23.310;2023-03-18T05:39:39;94222.97;;;2.27;92.73
11682;BME280;5897;42.640;23.310;2023-03-18T05:42:06;94223.84;;;2.38;92.16
11682;BME280;5897;42.640;23.310;2023-03-18T05:44:33;94228.53;;;2.51;92.04
11682;BME280;5897;42.640;23.310;2023-03-18T05:47:00;94233.19;;;2.61;91.19
11682;BME280;5897;42.640;23.310;2023-03-18T05:49:27;94235.59;;;2.73;90.80
11682;BME280;5897;42.640;23.310;2023-03-18T05:51:55;94234.91;;;2.83;89.97
11682;BME280;5897;42.640;23.310;2023-03-18T05:54:22;94240.28;;;2.90;89.94
11682;BME280;5897;42.640;23.310;2023-03-18T05:56:49;94248.00;;;3.02;89.76
11682;BME280;5897;42.640;23.310;2023-03-18T05:59:17;94238.94;;;3.10;89.65
11682;BME280;5897;42.640;23.310;2023-03-18T06:01:44;94223.97;;;3.02;89.08
11682;BME280;5897;42.640;23.310;2023-03-18T06:04:11;94254.69;;;3.29;88.75
11682;BME280;5897;42.640;23.310;2023-03-18T06:06:38;94256.19;;;3.27;88.15
11682;BME280;5897;42.640;23.310;2023-03-18T06:09:07;94260.41;;;3.31;87.47
11682;BME280;5897;42.640;23.310;2023-03-18T06:11:35;94267.47;;;3.64;91.29
11682;BME280;5897;42.640;23.310;2023-03-18T06:14:02;94261.78;;;3.72;89.67
11682;BME280;5897;42.640;23.310;2023-03-18T06:16:30;94264.50;;;3.76;87.03
11682;BME280;5897;42.640;23.310;2023-03-18T06:18:57;94249.91;;;3.63;85.99
11682;BME280;5897;42.640;23.310;2023-03-18T06:21:24;94267.59;;;3.88;85.04
11682;BME280;5897;42.640;23.310;2023-03-18T06:23:51;94260.38;;;3.99;83.37
11682;BME280;5897;42.640;23.310;2023-03-18T06:26:20;94270.59;;;3.83;80.42
11682;BME280;5897;42.640;23.310;2023-03-18T06:28:47;94277.56;;;4.02;80.51
11682;BME280;5897;42.640;23.310;2023-03-18T06:31:14;94269.63;;;4.23;80.10
11682;BME280;5897;42.640;23.310;2023-03-18T06:33:41;94267.41;;;4.42;79.25
11682;BME280;5897;42.640;23.310;2023-03-18T06:36:08;94263.59;;;4.50;77.99
11682;BME280;5897;42.640;23.310;2023-03-18T06:38:36;94262.09;;;4.67;76.88
11682;BME280;5897;42.640;23.310;2023-03-18T06:41:03;94251.75;;;4.83;75.65
11682;BME280;5897;42.640;23.310;2023-03-18T06:43:31;94242.59;;;4.94;75.17
11682;BME280;5897;42.640;23.310;2023-03-18T06:45:58;94240.31;;;5.10;74.21
11682;BME280;5897;42.640;23.310;2023-03-18T06:48:25;94223.06;;;5.29;73.15
11682;BME280;5897;42.640;23.310;2023-03-18T06:50:52;94236.06;;;5.41;71.82
11682;BME280;5897;42.640;23.310;2023-03-18T06:53:20;94226.50;;;5.43;76.12
11682;BME280;5897;42.640;23.310;2023-03-18T06:55:47;94231.44;;;5.59;73.67
11682;BME280;5897;42.640;23.310;2023-03-18T06:58:14;94227.56;;;5.70;71.71
11682;BME280;5897;42.640;23.310;2023-03-18T07:00:43;94240.19;;;5.84;70.45
11682;BME280;5897;42.640;23.310;2023-03-18T07:03:11;94241.28;;;5.93;67.38
11682;BME280;5897;42.640;23.310;2023-03-18T07:05:40;94240.13;;;6.01;67.51
11682;BME280;5897;42.640;23.310;2023-03-18T07:08:07;94244.34;;;5.99;68.77
11682;BME280;5897;42.640;23.310;2023-03-18T07:10:34;94237.38;;;6.15;67.99
11682;BME280;5897;42.640;23.310;2023-03-18T07:13:01;94240.88;;;6.02;68.47
11682;BME280;5897;42.640;23.310;2023-03-18T07:15:29;94242.28;;;6.27;69.03
11682;BME280;5897;42.640;23.310;2023-03-18T07:17:57;94233.78;;;6.46;68.42
11682;BME280;5897;42.640;23.310;2023-03-18T07:20:25;94235.63;;;6.60;67.14
11682;BME280;5897;42.640;23.310;2023-03-18T07:22:53;94254.28;;;6.77;66.21
11682;BME280;5897;42.640;23.310;2023-03-18T07:25:19;94235.19;;;6.68;66.39
11682;BME280;5897;42.640;23.310;2023-03-18T07:27:46;94242.72;;;6.87;66.48
11682;BME280;5897;42.640;23.310;2023-03-18T07:30:14;94236.53;;;6.90;66.88
11682;BME280;5897;42.640;23.310;2023-03-18T07:32:42;94237.88;;;7.16;64.92
11682;BME280;5897;42.640;23.310;2023-03-18T07:35:12;94250.22;;;7.06;64.99
11682;BME280;5897;42.640;23.310;2023-03-18T07:37:39;94247.75;;;7.29;65.37
11682;BME280;5897;42.640;23.310;2023-03-18T07:40:07;94243.03;;;7.40;64.46
11682;BME280;5897;42.640;23.310;2023-03-18T07:42:34;94250.56;;;7.59;63.87
11682;BME280;5897;42.640;23.310;2023-03-18T07:45:00;94247.13;;;7.55;62.99
11682;BME280;5897;42.640;23.310;2023-03-18T07:47:27;94248.50;;;7.70;64.29
11682;BME280;5897;42.640;23.310;2023-03-18T07:49:55;94245.59;;;7.54;63.86
11682;BME280;5897;42.640;23.310;2023-03-18T07:52:23;94234.34;;;7.66;62.72
11682;BME280;5897;42.640;23.310;2023-03-18T07:54:50;94248.66;;;7.56;65.42
11682;BME280;5897;42.640;23.310;2023-03-18T07:57:16;94241.09;;;7.81;65.10
11682;BME280;5897;42.640;23.310;2023-03-18T07:59:43;94248.72;;;7.86;64.43
11682;BME280;5897;42.640;23.310;2023-03-18T08:02:11;94248.13;;;7.68;64.98
11682;BME280;5897;42.640;23.310;2023-03-18T08:04:38;94244.19;;;8.13;64.19
11682;BME280;5897;42.640;23.310;2023-03-18T08:07:05;94249.25;;;8.41;63.00
11682;BME280;5897;42.640;23.310;2023-03-18T08:09:34;94247.19;;;8.52;60.53
11682;BME280;5897;42.640;23.310;2023-03-18T08:12:01;94254.00;;;8.60;62.63
11682;BME280;5897;42.640;23.310;2023-03-18T08:14:28;94247.03;;;8.63;61.76
11682;BME280;5897;42.640;23.310;2023-03-18T08:16:54;94240.06;;;8.92;60.61
11682;BME280;5897;42.640;23.310;2023-03-18T08:19:21;94237.22;;;9.02;59.32
11682;BME280;5897;42.640;23.310;2023-03-18T08:21:48;94234.53;;;9.02;59.32
11682;BME280;5897;42.640;23.310;2023-03-18T08:24:15;94234.66;;;9.18;58.27
11682;BME280;5897;42.640;23.310;2023-03-18T08:26:43;94241.69;;;9.35;57.54
11682;BME280;5897;42.640;23.310;2023-03-18T08:29:10;94237.63;;;9.70;57.74
11682;BME280;5897;42.640;23.310;2023-03-18T08:31:36;94235.03;;;9.86;58.71
11682;BME280;5897;42.640;23.310;2023-03-18T08:34:03;94246.47;;;9.93;57.75
11682;BME280;5897;42.640;23.310;2023-03-18T08:36:30;94249.25;;;10.09;55.51
11682;BME280;5897;42.640;23.310;2023-03-18T08:38:57;94238.22;;;10.00;55.13
11682;BME280;5897;42.640;23.310;2023-03-18T08:41:24;94240.34;;;10.12;54.62
11682;BME280;5897;42.640;23.310;2023-03-18T08:43:52;94237.38;;;10.07;55.44
11682;BME280;5897;42.640;23.310;2023-03-18T08:46:21;94245.94;;;10.21;54.54
11682;BME280;5897;42.640;23.310;2023-03-18T08:48:48;94240.09;;;10.42;54.33
11682;BME280;5897;42.640;23.310;2023-03-18T08:51:16;94243.75;;;10.52;53.00
11682;BME280;5897;42.640;23.310;2023-03-18T08:53:43;94245.50;;;10.62;53.26
11682;BME280;5897;42.640;23.310;2023-03-18T08:56:11;94254.94;;;10.89;51.87
11682;BME280;5897;42.640;23.310;2023-03-18T08:58:39;94247.91;;;10.92;50.89
11682;BME280;5897;42.640;23.310;2023-03-18T09:01:07;94252.81;;;10.97;50.99
11682;BME280;5897;42.640;23.310;2023-03-18T09:03:34;94249.72;;;11.14;50.63
11682;BME280;5897;42.640;23.310;2023-03-18T09:06:01;94241.97;;;11.32;49.80
11682;BME280;5897;42.640;23.310;2023-03-18T09:08:29;94248.69;;;11.40;49.74
11682;BME280;5897;42.640;23.310;2023-03-18T09:10:57;94250.47;;;11.31;49.27
11682;BME280;5897;42.640;23.310;2023-03-18T09:13:24;94246.91;;;11.82;49.61
11682;BME280;5897;42.640;23.310;2023-03-18T09:15:52;94253.63;;;12.05;47.99
11682;BME280;5897;42.640;23.310;2023-03-18T09:18:20;94249.41;;;12.33;46.03
11682;BME280;5897;42.640;23.310;2023-03-18T09:20:47;94257.81;;;12.51;44.97
11682;BME280;5897;42.640;23.310;2023-03-18T09:23:15;94250.97;;;12.59;44.24
11682;BME280;5897;42.640;23.310;2023-03-18T09:25:44;94254.25;;;12.66;43.37
11682;BME280;5897;42.640;23.310;2023-03-18T09:28:11;94255.78;;;12.55;42.07
11682;BME280;5897;42.640;23.310;2023-03-18T09:30:38;94254.03;;;12.73;41.85
11682;BME280;5897;42.640;23.310;2023-03-18T09:33:06;94249.78;;;13.01;41.21
11682;BME280;5897;42.640;23.310;2023-03-18T09:35:34;94247.00;;;12.63;39.35
11682;BME280;5897;42.640;23.310;2023-03-18T09:38:02;94246.25;;;12.88;36.97
11682;BME280;5897;42.640;23.310;2023-03-18T09:40:30;94253.22;;;12.89;37.76
11682;BME280;5897;42.640;23.310;2023-03-18T09:43:04;94250.00;;;13.19;38.90
11682;BME280;5897;42.640;23.310;2023-03-18T09:45:43;94248.50;;;13.18;36.15
11682;BME280;5897;42.640;23.310;2023-03-18T09:48:34;94245.88;;;13.27;36.62
11682;BME280;5897;42.640;23.310;2023-03-18T09:51:14;94243.38;;;13.45;36.13
11682;BME280;5897;42.640;23.310;2023-03-18T09:53:48;94238.59;;;13.24;37.07
11682;BME280;5897;42.640;23.310;2023-03-18T09:56:21;94232.19;;;13.43;38.57
11682;BME280;5897;42.640;23.310;2023-03-18T09:58:55;94244.69;;;13.87;36.72
11682;BME280;5897;42.640;23.310;2023-03-18T10:01:24;94251.88;;;13.81;36.33
11682;BME280;5897;42.640;23.310;2023-03-18T10:03:56;94251.91;;;14.02;36.76
11682;BME280;5897;42.640;23.310;2023-03-18T10:06:27;94246.09;;;14.13;35.42
11682;BME280;5897;42.640;23.310;2023-03-18T10:09:00;94243.69;;;14.49;35.94
11682;BME280;5897;42.640;23.310;2023-03-18T10:11:32;94238.41;;;14.45;35.20
11682;BME280;5897;42.640;23.310;2023-03-18T10:14:17;94241.09;;;14.24;33.96
11682;BME280;5897;42.640;23.310;2023-03-18T10:16:56;94247.03;;;13.97;34.16
11682;BME280;5897;42.640;23.310;2023-03-18T10:19:26;94246.16;;;13.54;35.56
11682;BME280;5897;42.640;23.310;2023-03-18T10:22:03;94250.84;;;13.87;34.62
11682;BME280;5897;42.640;23.310;2023-03-18T10:24:36;94248.25;;;13.84;33.97
11682;BME280;5897;42.640;23.310;2023-03-18T10:27:13;94241.00;;;14.15;33.54
11682;BME280;5897;42.640;23.310;2023-03-18T10:29:46;94240.59;;;14.38;31.04
11682;BME280;5897;42.640;23.310;2023-03-18T10:32:25;94244.41;;;14.19;31.41
11682;BME280;5897;42.640;23.310;2023-03-18T10:35:01;94231.13;;;14.42;31.93
11682;BME280;5897;42.640;23.310;2023-03-18T10:37:43;94231.09;;;14.64;29.91
11682;BME280;5897;42.640;23.310;2023-03-18T10:40:15;94236.38;;;14.58;29.90
11682;BME280;5897;42.640;23.310;2023-03-18T10:42:43;94234.75;;;14.91;29.48
11682;BME280;5897;42.640;23.310;2023-03-18T10:45:20;94227.59;;;14.85;30.08
11682;BME280;5897;42.640;23.310;2023-03-18T10:47:54;94215.78;;;14.79;30.61
11682;BME280;5897;42.640;23.310;2023-03-18T10:50:29;94226.22;;;15.11;29.75
11682;BME280;5897;42.640;23.310;2023-03-18T10:53:03;94227.25;;;15.44;29.21
11682;BME280;5897;42.640;23.310;2023-03-18T10:55:37;94225.53;;;15.77;28.71
11682;BME280;5897;42.640;23.310;2023-03-18T10:58:15;94208.56;;;15.64;28.76
11682;BME280;5897;42.640;23.310;2023-03-18T11:00:43;94214.78;;;15.82;28.70
11682;BME280;5897;42.640;23.310;2023-03-18T11:03:19;94211.00;;;15.89;28.33
11682;BME280;5897;42.640;23.310;2023-03-18T11:05:48;94219.22;;;16.43;27.02
11682;BME280;5897;42.640;23.310;2023-03-18T11:08:30;94217.38;;;16.31;26.92
11682;BME280;5897;42.640;23.310;2023-03-18T11:11:01;94211.59;;;15.75;27.36
11682;BME280;5897;42.640;23.310;2023-03-18T11:13:29;94218.59;;;16.12;27.78
11682;BME280;5897;42.640;23.310;2023-03-18T11:15:56;94216.13;;;15.69;27.65
11682;BME280;5897;42.640;23.310;2023-03-18T11:18:24;94225.16;;;15.39;28.20
11682;BME280;5897;42.640;23.310;2023-03-18T11:20:54;94218.88;;;14.90;28.28
11682;BME280;5897;42.640;23.310;2023-03-18T11:23:31;94209.53;;;14.69;28.56
11682;BME280;5897;42.640;23.310;2023-03-18T11:26:19;94214.94;;;14.39;29.06
11682;BME280;5897;42.640;23.310;2023-03-18T11:28:45;94216.34;;;13.29;31.88
11682;BME280;5897;42.640;23.310;2023-03-18T11:31:15;94219.03;;;12.54;33.97
11682;BME280;5897;42.640;23.310;2023-03-18T11:33:43;94222.19;;;12.24;34.14
11682;BME280;5897;42.640;23.310;2023-03-18T11:36:13;94211.31;;;12.12;35.04
11682;BME280;5897;42.640;23.310;2023-03-18T11:38:43;94217.38;;;12.03;34.39
11682;BME280;5897;42.640;23.310;2023-03-18T11:41:22;94215.56;;;12.25;33.68
11682;BME280;5897;42.640;23.310;2023-03-18T11:43:57;94212.34;;;12.96;33.48
11682;BME280;5897;42.640;23.310;2023-03-18T11:46:26;94205.09;;;13.64;33.22
11682;BME280;5897;42.640;23.310;2023-03-18T11:48:55;94200.50;;;14.51;31.08
11682;BME280;5897;42.640;23.310;2023-03-18T11:51:43;94193.16;;;14.60;29.00
11682;BME280;5897;42.640;23.310;2023-03-18T11:54:29;94194.38;;;14.16;29.20
11682;BME280;5897;42.640;23.310;2023-03-18T11:57:08;94208.22;;;13.75;29.53
11682;BME280;5897;42.640;23.310;2023-03-18T11:59:47;94220.44;;;12.83;30.95
11682;BME280;5897;42.640;23.310;2023-03-18T12:02:25;94216.09;;;12.61;31.54
11682;BME280;5897;42.640;23.310;2023-03-18T12:08:14;94213.44;;;12.32;32.56
11682;BME280;5897;42.640;23.310;2023-03-18T12:10:45;94218.09;;;12.98;32.46
11682;BME280;5897;42.640;23.310;2023-03-18T12:13:26;94205.97;;;13.74;31.17
11682;BME280;5897;42.640;23.310;2023-03-18T12:16:02;94206.66;;;13.87;30.34
11682;BME280;5897;42.640;23.310;2023-03-18T12:18:47;94210.31;;;13.71;30.51
11682;BME280;5897;42.640;23.310;2023-03-18T12:21:44;94211.66;;;12.92;32.55
11682;BME280;5897;42.640;23.310;2023-03-18T12:24:43;94224.47;;;12.25;33.92
11682;BME280;5897;42.640;23.310;2023-03-18T12:27:19;94214.25;;;12.17;34.56
11682;BME280;5897;42.640;23.310;2023-03-18T12:30:00;94210.88;;;12.13;34.23
11682;BME280;5897;42.640;23.310;2023-03-18T12:32:32;94214.25;;;12.17;35.26
11682;BME280;5897;42.640;23.310;2023-03-18T12:35:22;94205.84;;;11.99;34.75
11682;BME280;5897;42.640;23.310;2023-03-18T12:38:05;94207.19;;;12.07;34.69
11682;BME280;5897;42.640;23.310;2023-03-18T12:40:42;94208.88;;;11.89;33.83
11682;BME280;5897;42.640;23.310;2023-03-18T12:43:23;94199.19;;;11.27;34.16
11682;BME280;5897;42.640;23.310;2023-03-18T12:45:58;94198.63;;;11.04;34.23
11682;BME280;5897;42.640;23.310;2023-03-18T12:48:29;94201.19;;;10.75;35.03
11682;BME280;5897;42.640;23.310;2023-03-18T12:51:03;94204.38;;;10.70;35.96
11682;BME280;5897;42.640;23.310;2023-03-18T12:53:34;94201.16;;;11.27;35.85
11682;BME280;5897;42.640;23.310;2023-03-18T12:56:04;94203.03;;;11.74;35.31
11682;BME280;5897;42.640;23.310;2023-03-18T12:58:39;94206.56;;;12.69;34.34
11682;BME280;5897;42.640;23.310;2023-03-18T13:01:14;94204.59;;;12.82;33.07
11682;BME280;5897;42.640;23.310;2023-03-18T13:03:45;94202.00;;;12.13;33.47
11682;BME280;5897;42.640;23.310;2023-03-18T13:06:16;94199.53;;;11.90;34.43
11682;BME280;5897;42.640;23.310;2023-03-18T13:08:58;94201.91;;;11.59;34.23
11682;BME280;5897;42.640;23.310;2023-03-18T13:14:26;94204.22;;;11.57;35.00
11682;BME280;5897;42.640;23.310;2023-03-18T13:16:56;94202.38;;;11.70;34.95
11682;BME280;5897;42.640;23.310;2023-03-18T13:19:23;94193.44;;;12.14;34.31
11682;BME280;5897;42.640;23.310;2023-03-18T13:21:58;94196.78;;;12.59;34.21
11682;BME280;5897;42.640;23.310;2023-03-18T13:24:51;94202.00;;;12.78;33.12
11682;BME280;5897;42.640;23.310;2023-03-18T13:27:35;94204.38;;;12.64;32.30